createdAt,value
2019-06-20T00:00:48.742Z,14.20
2019-06-20T00:01:53.801Z,15.07
2019-06-20T00:02:59.513Z,13.57
2019-06-20T00:04:04.691Z,13.83
2019-06-20T00:05:10.602Z,13.30
2019-06-20T00:06:15.602Z,15.00
2019-06-20T00:07:21.121Z,13.80
2019-06-20T00:08:26.114Z,13.57
2019-06-20T00:09:31.752Z,13.80
2019-06-20T00:10:36.691Z,14.30
2019-06-20T00:11:42.352Z,16.93
2019-06-20T00:12:59.539Z,14.93
2019-06-20T00:13:54.567Z,15.83
2019-06-20T00:14:59.564Z,16.10
2019-06-20T00:16:05.611Z,16.80
2019-06-20T00:17:10.612Z,16.63
2019-06-20T00:18:16.262Z,16.23
2019-06-20T00:19:21.182Z,16.43
2019-06-20T00:20:26.861Z,15.93
2019-06-20T00:21:31.933Z,16.93
2019-06-20T00:22:37.452Z,14.90
2019-06-20T00:23:42.442Z,13.37
2019-06-20T00:24:47.928Z,13.93
2019-06-20T00:25:52.932Z,16.37
2019-06-20T00:26:58.484Z,15.63
2019-06-20T00:28:03.567Z,17.30
2019-06-20T00:29:09.053Z,15.33
2019-06-20T00:30:14.891Z,15.07
2019-06-20T00:31:20.383Z,18.07
2019-06-20T00:32:25.502Z,16.37
2019-06-20T00:33:31.022Z,15.57
2019-06-20T00:34:35.975Z,16.77
2019-06-20T00:35:41.544Z,18.37
2019-06-20T00:36:46.532Z,18.70
2019-06-20T00:37:52.083Z,17.53
2019-06-20T00:38:57.021Z,16.77
2019-06-20T00:40:02.548Z,20.73
2019-06-20T00:41:07.721Z,21.83
2019-06-20T00:42:13.281Z,19.40
2019-06-20T00:43:18.500Z,17.67
2019-06-20T00:44:24.132Z,16.67
2019-06-20T00:45:29.412Z,18.07
2019-06-20T00:46:35.101Z,18.63
2019-06-20T00:47:40.099Z,20.23
2019-06-20T00:48:45.703Z,18.77
2019-06-20T00:49:50.668Z,18.43
2019-06-20T00:50:56.152Z,19.03
2019-06-20T00:52:01.112Z,18.03
2019-06-20T00:53:06.782Z,19.57
2019-06-20T00:54:11.691Z,19.33
2019-06-20T00:55:17.331Z,17.57
2019-06-20T00:56:22.422Z,17.50
2019-06-20T00:57:28.082Z,19.50
2019-06-20T00:58:33.181Z,16.87
2019-06-20T00:59:38.952Z,16.87
2019-06-20T01:00:44.023Z,17.23
2019-06-20T01:01:49.681Z,17.23
2019-06-20T01:02:54.792Z,18.00
2019-06-20T01:04:00.416Z,20.43
2019-06-20T01:05:06.443Z,25.83
2019-06-20T01:06:12.042Z,24.60
2019-06-20T01:07:16.952Z,20.93
2019-06-20T01:08:22.502Z,23.47
2019-06-20T01:09:27.470Z,23.53
2019-06-20T01:10:33.174Z,20.43
2019-06-20T01:11:38.281Z,21.03
2019-06-20T01:12:43.792Z,20.13
2019-06-20T01:13:48.861Z,19.10
2019-06-20T01:14:54.451Z,20.20
2019-06-20T01:15:59.585Z,20.03
2019-06-20T01:17:05.182Z,20.07
2019-06-20T01:18:10.161Z,18.87
2019-06-20T01:19:15.783Z,21.70
2019-06-20T01:20:21.012Z,22.27
2019-06-20T01:21:26.572Z,19.80
2019-06-20T01:22:31.763Z,19.67
2019-06-20T01:23:37.442Z,22.00
2019-06-20T01:24:42.394Z,24.13
2019-06-20T01:25:48.942Z,24.10
2019-06-20T01:26:53.862Z,22.60
2019-06-20T01:27:59.346Z,24.93
2019-06-20T01:29:04.276Z,24.97
2019-06-20T01:30:10.831Z,24.87
2019-06-20T01:31:15.795Z,27.13
2019-06-20T01:32:21.462Z,27.20
2019-06-20T01:33:26.562Z,27.50
2019-06-20T01:34:32.133Z,27.47
2019-06-20T01:35:37.061Z,27.17
2019-06-20T01:36:42.811Z,25.23
2019-06-20T01:37:47.834Z,25.87
2019-06-20T01:38:53.395Z,26.00
2019-06-20T01:39:58.304Z,24.80
2019-06-20T01:41:06.274Z,25.20
2019-06-20T01:42:10.402Z,25.30
2019-06-20T01:43:15.912Z,25.80
2019-06-20T01:44:20.872Z,25.23
2019-06-20T01:45:26.512Z,26.73
2019-06-20T01:46:31.523Z,25.90
2019-06-20T01:47:37.051Z,25.70
2019-06-20T01:48:42.082Z,25.23
2019-06-20T01:49:47.612Z,24.77
2019-06-20T01:50:52.532Z,25.93
2019-06-20T01:51:58.001Z,25.80
2019-06-20T01:53:03.036Z,24.93
2019-06-20T01:54:08.692Z,24.03
2019-06-20T01:55:13.883Z,26.67
2019-06-20T01:56:19.391Z,27.43
2019-06-20T01:57:24.533Z,27.67
2019-06-20T01:58:30.032Z,30.90
2019-06-20T01:59:35.258Z,31.37
2019-06-20T02:00:48.123Z,33.50
2019-06-20T02:01:53.132Z,32.80
2019-06-20T02:02:58.660Z,30.63
2019-06-20T02:04:03.660Z,28.33
2019-06-20T02:05:09.926Z,27.43
2019-06-20T02:06:15.175Z,25.73
2019-06-20T02:07:20.671Z,26.20
2019-06-20T02:08:25.701Z,26.50
2019-06-20T02:09:31.282Z,26.10
2019-06-20T02:10:36.343Z,26.03
2019-06-20T02:11:41.989Z,25.77
2019-06-20T02:12:46.912Z,25.90
2019-06-20T02:14:06.413Z,26.40
2019-06-20T02:14:59.223Z,25.07
2019-06-20T02:16:05.293Z,25.70
2019-06-20T02:17:10.332Z,25.83
2019-06-20T02:18:16.243Z,25.27
2019-06-20T02:19:21.192Z,25.87
2019-06-20T02:20:35.732Z,25.00
2019-06-20T02:21:40.593Z,23.73
2019-06-20T02:22:46.221Z,24.57
2019-06-20T02:23:51.252Z,25.13
2019-06-20T02:24:56.782Z,24.67
2019-06-20T02:26:01.703Z,25.40
2019-06-20T02:27:07.414Z,24.50
2019-06-20T02:28:12.553Z,25.07
2019-06-20T02:29:18.082Z,26.03
2019-06-20T02:30:23.160Z,25.80
2019-06-20T02:31:28.798Z,23.13
2019-06-20T02:32:33.727Z,22.90
2019-06-20T02:33:39.232Z,20.80
2019-06-20T02:34:44.187Z,21.83
2019-06-20T02:35:49.705Z,23.03
2019-06-20T02:36:54.624Z,24.03
2019-06-20T02:38:00.292Z,25.53
2019-06-20T02:39:07.492Z,23.23
2019-06-20T02:40:13.322Z,22.87
2019-06-20T02:41:18.364Z,20.63
2019-06-20T02:42:24.132Z,21.57
2019-06-20T02:43:29.221Z,19.80
2019-06-20T02:44:34.812Z,22.43
2019-06-20T02:45:40.017Z,21.60
2019-06-20T02:46:45.692Z,22.17
2019-06-20T02:47:50.616Z,22.73
2019-06-20T02:48:56.114Z,22.33
2019-06-20T02:50:01.023Z,23.00
2019-06-20T02:51:06.792Z,23.20
2019-06-20T02:52:11.891Z,23.00
2019-06-20T02:53:17.527Z,22.97
2019-06-20T02:54:22.662Z,24.17
2019-06-20T02:55:28.286Z,23.63
2019-06-20T02:56:33.313Z,21.87
2019-06-20T02:57:38.851Z,20.73
2019-06-20T02:58:43.896Z,19.43
2019-06-20T02:59:49.417Z,20.00
2019-06-20T03:00:58.449Z,21.73
2019-06-20T03:02:03.961Z,20.67
2019-06-20T03:03:08.882Z,20.10
2019-06-20T03:04:14.391Z,19.93
2019-06-20T03:05:19.563Z,20.47
2019-06-20T03:06:25.212Z,22.33
2019-06-20T03:07:30.132Z,20.40
2019-06-20T03:08:35.882Z,18.53
2019-06-20T03:09:40.782Z,18.00
2019-06-20T03:10:46.313Z,19.80
2019-06-20T03:11:51.259Z,21.23
2019-06-20T03:12:56.782Z,20.93
2019-06-20T03:14:01.690Z,20.70
2019-06-20T03:15:07.882Z,19.30
2019-06-20T03:16:12.883Z,20.70
2019-06-20T03:17:18.436Z,20.87
2019-06-20T03:18:23.529Z,20.80
2019-06-20T03:19:29.022Z,19.57
2019-06-20T03:20:33.892Z,19.90
2019-06-20T03:21:39.451Z,19.03
2019-06-20T03:22:44.362Z,17.97
2019-06-20T03:23:49.871Z,19.53
2019-06-20T03:24:54.812Z,19.63
2019-06-20T03:26:00.301Z,17.10
2019-06-20T03:27:05.372Z,20.00
2019-06-20T03:28:10.882Z,19.90
2019-06-20T03:29:15.942Z,19.07
2019-06-20T03:30:21.542Z,19.50
2019-06-20T03:31:26.574Z,20.13
2019-06-20T03:32:32.082Z,19.73
2019-06-20T03:33:37.003Z,19.40
2019-06-20T03:34:42.612Z,19.10
2019-06-20T03:35:47.532Z,19.43
2019-06-20T03:36:53.142Z,19.07
2019-06-20T03:37:58.101Z,18.07
2019-06-20T03:39:03.723Z,18.43
2019-06-20T03:40:09.045Z,18.63
2019-06-20T03:41:14.542Z,18.63
2019-06-20T03:42:19.525Z,18.00
2019-06-20T03:43:25.222Z,18.23
2019-06-20T03:44:30.171Z,18.93
2019-06-20T03:45:35.892Z,18.17
2019-06-20T03:46:40.852Z,18.23
2019-06-20T03:47:46.391Z,17.70
2019-06-20T03:48:51.452Z,18.30
2019-06-20T03:49:56.963Z,18.23
2019-06-20T03:51:01.892Z,19.23
2019-06-20T03:52:07.483Z,18.70
2019-06-20T03:53:12.662Z,18.30
2019-06-20T03:54:18.322Z,17.97
2019-06-20T03:55:23.297Z,17.93
2019-06-20T03:56:28.801Z,18.07
2019-06-20T03:57:33.771Z,17.90
2019-06-20T03:58:39.309Z,17.53
2019-06-20T03:59:44.291Z,17.70
2019-06-20T04:00:49.871Z,17.67
2019-06-20T04:01:55.814Z,18.07
2019-06-20T04:03:01.504Z,17.73
2019-06-20T04:04:06.433Z,17.90
2019-06-20T04:05:12.165Z,17.83
2019-06-20T04:06:17.101Z,17.43
2019-06-20T04:07:22.571Z,18.13
2019-06-20T04:08:27.581Z,17.53
2019-06-20T04:09:33.136Z,17.90
2019-06-20T04:10:38.139Z,16.83
2019-06-20T04:11:43.651Z,17.93
2019-06-20T04:12:48.584Z,17.57
2019-06-20T04:13:54.071Z,18.00
2019-06-20T04:14:59.032Z,19.67
2019-06-20T04:16:04.622Z,18.97
2019-06-20T04:17:09.549Z,19.10
2019-06-20T04:18:15.186Z,18.87
2019-06-20T04:19:20.101Z,19.30
2019-06-20T04:20:25.621Z,17.90
2019-06-20T04:21:30.552Z,18.30
2019-06-20T04:22:36.032Z,19.10
2019-06-20T04:23:41.002Z,19.10
2019-06-20T04:24:46.511Z,18.57
2019-06-20T04:25:51.453Z,18.97
2019-06-20T04:26:57.018Z,18.93
2019-06-20T04:28:01.932Z,18.03
2019-06-20T04:29:07.592Z,20.03
2019-06-20T04:30:12.820Z,18.60
2019-06-20T04:31:18.394Z,18.97
2019-06-20T04:32:23.272Z,17.23
2019-06-20T04:33:28.971Z,18.33
2019-06-20T04:34:33.911Z,17.83
2019-06-20T04:35:39.453Z,17.60
2019-06-20T04:36:47.967Z,19.07
2019-06-20T04:37:51.993Z,17.03
2019-06-20T04:38:57.054Z,18.17
2019-06-20T04:40:02.642Z,17.43
2019-06-20T04:41:07.562Z,17.40
2019-06-20T04:42:13.141Z,18.07
2019-06-20T04:43:18.052Z,16.90
2019-06-20T04:44:24.689Z,16.23
2019-06-20T04:45:38.614Z,16.67
2019-06-20T04:46:52.731Z,16.63
2019-06-20T04:47:57.632Z,16.17
2019-06-20T04:49:03.201Z,16.20
2019-06-20T04:50:08.355Z,15.73
2019-06-20T04:51:15.191Z,15.97
2019-06-20T04:52:20.172Z,16.53
2019-06-20T04:53:25.802Z,16.87
2019-06-20T04:54:30.752Z,16.77
2019-06-20T04:55:36.311Z,16.53
2019-06-20T04:56:41.231Z,15.43
2019-06-20T04:57:46.732Z,16.33
2019-06-20T04:58:51.621Z,15.43
2019-06-20T05:00:03.503Z,15.77
2019-06-20T05:01:08.521Z,15.67
2019-06-20T05:02:15.028Z,16.00
2019-06-20T05:03:20.302Z,16.17
2019-06-20T05:04:25.861Z,15.87
2019-06-20T05:05:30.772Z,15.73
2019-06-20T05:06:37.880Z,15.60
2019-06-20T05:07:42.779Z,13.77
2019-06-20T05:08:48.408Z,14.53
2019-06-20T05:09:53.325Z,14.17
2019-06-20T05:10:58.842Z,13.77
2019-06-20T05:12:03.798Z,14.80
2019-06-20T05:13:09.273Z,14.30
2019-06-20T05:14:14.193Z,14.47
2019-06-20T05:15:19.853Z,14.80
2019-06-20T05:16:24.935Z,15.33
2019-06-20T05:17:30.503Z,14.03
2019-06-20T05:18:35.523Z,15.07
2019-06-20T05:19:41.070Z,14.63
2019-06-20T05:20:45.993Z,14.70
2019-06-20T05:21:51.542Z,14.50
2019-06-20T05:22:56.487Z,14.07
2019-06-20T05:24:01.971Z,14.13
2019-06-20T05:25:07.301Z,13.63
2019-06-20T05:26:13.921Z,13.30
2019-06-20T05:27:19.039Z,13.03
2019-06-20T05:28:24.551Z,13.17
2019-06-20T05:29:29.503Z,12.80
2019-06-20T05:30:35.065Z,14.07
2019-06-20T05:31:39.997Z,13.57
2019-06-20T05:32:45.552Z,14.13
2019-06-20T05:33:50.442Z,13.93
2019-06-20T05:34:55.912Z,14.40
2019-06-20T05:36:00.972Z,13.87
2019-06-20T05:37:06.472Z,14.10
2019-06-20T05:38:11.381Z,13.73
2019-06-20T05:39:16.872Z,13.67
2019-06-20T05:40:22.126Z,14.33
2019-06-20T05:41:27.623Z,13.70
2019-06-20T05:42:32.541Z,13.30
2019-06-20T05:43:38.163Z,14.00
2019-06-20T05:44:43.091Z,14.13
2019-06-20T05:45:49.052Z,15.00
2019-06-20T05:47:08.551Z,14.17
2019-06-20T05:48:01.191Z,13.33
2019-06-20T05:49:06.246Z,13.83
2019-06-20T05:50:13.244Z,14.10
2019-06-20T05:51:18.469Z,14.30
2019-06-20T05:52:23.962Z,14.07
2019-06-20T05:53:28.959Z,12.70
2019-06-20T05:54:34.684Z,14.17
2019-06-20T05:55:39.658Z,13.27
2019-06-20T05:56:45.141Z,12.97
2019-06-20T05:57:50.042Z,12.70
2019-06-20T05:58:55.543Z,12.70
2019-06-20T06:00:00.925Z,12.70
2019-06-20T06:01:06.823Z,13.10
2019-06-20T06:02:11.821Z,14.10
2019-06-20T06:03:18.994Z,13.53
2019-06-20T06:04:24.122Z,12.87
2019-06-20T06:05:29.821Z,12.93
2019-06-20T06:06:53.742Z,12.20
2019-06-20T06:07:59.301Z,12.03
2019-06-20T06:09:05.431Z,12.77
2019-06-20T06:10:11.173Z,12.57
2019-06-20T06:11:16.704Z,12.63
2019-06-20T06:12:22.371Z,12.60
2019-06-20T06:13:27.430Z,13.20
2019-06-20T06:14:32.973Z,13.70
2019-06-20T06:15:38.011Z,12.50
2019-06-20T06:16:44.262Z,13.47
2019-06-20T06:17:49.332Z,12.67
2019-06-20T06:18:55.054Z,13.27
2019-06-20T06:20:00.343Z,13.40
2019-06-20T06:21:06.338Z,12.73
2019-06-20T06:22:11.402Z,12.63
2019-06-20T06:23:16.982Z,13.20
2019-06-20T06:24:21.943Z,13.40
2019-06-20T06:25:27.463Z,12.83
2019-06-20T06:26:32.433Z,13.37
2019-06-20T06:27:38.073Z,13.00
2019-06-20T06:28:43.152Z,13.67
2019-06-20T06:29:48.750Z,12.17
2019-06-20T06:30:53.772Z,13.20
2019-06-20T06:31:59.399Z,12.03
2019-06-20T06:33:04.542Z,12.37
2019-06-20T06:34:10.152Z,11.70
2019-06-20T06:35:15.541Z,13.40
2019-06-20T06:36:21.173Z,12.63
2019-06-20T06:37:26.221Z,12.43
2019-06-20T06:38:31.791Z,13.07
2019-06-20T06:39:36.771Z,13.60
2019-06-20T06:40:42.401Z,12.77
2019-06-20T06:41:47.496Z,12.20
2019-06-20T06:42:53.097Z,12.93
2019-06-20T06:43:58.022Z,12.90
2019-06-20T06:45:03.641Z,13.40
2019-06-20T06:46:08.663Z,13.63
2019-06-20T06:47:14.253Z,13.60
2019-06-20T06:48:19.253Z,12.00
2019-06-20T06:49:24.871Z,11.97
2019-06-20T06:50:30.043Z,13.37
2019-06-20T06:51:38.196Z,12.63
2019-06-20T06:52:42.370Z,13.63
2019-06-20T06:53:47.954Z,13.53
2019-06-20T06:54:52.962Z,12.90
2019-06-20T06:55:58.493Z,13.03
2019-06-20T06:57:03.476Z,13.40
2019-06-20T06:58:09.062Z,12.70
2019-06-20T06:59:14.231Z,12.40
2019-06-20T07:00:20.042Z,12.87
2019-06-20T07:01:24.955Z,12.63
2019-06-20T07:02:30.556Z,12.67
2019-06-20T07:03:35.601Z,13.37
2019-06-20T07:04:41.266Z,13.17
2019-06-20T07:05:46.302Z,13.10
2019-06-20T07:06:51.824Z,13.43
2019-06-20T07:07:56.837Z,12.77
2019-06-20T07:09:02.371Z,13.27
2019-06-20T07:10:08.052Z,14.17
2019-06-20T07:11:13.835Z,13.70
2019-06-20T07:12:18.989Z,14.03
2019-06-20T07:13:26.476Z,13.37
2019-06-20T07:14:31.397Z,13.13
2019-06-20T07:15:37.019Z,13.13
2019-06-20T07:16:42.092Z,13.33
2019-06-20T07:17:47.702Z,12.60
2019-06-20T07:18:53.911Z,12.57
2019-06-20T07:19:59.452Z,12.87
2019-06-20T07:21:04.571Z,13.43
2019-06-20T07:22:10.204Z,14.03
2019-06-20T07:23:15.232Z,13.43
2019-06-20T07:24:20.865Z,14.03
2019-06-20T07:25:25.841Z,13.17
2019-06-20T07:26:31.373Z,13.10
2019-06-20T07:27:36.424Z,12.93
2019-06-20T07:28:42.011Z,13.70
2019-06-20T07:29:46.982Z,12.60
2019-06-20T07:30:52.591Z,13.83
2019-06-20T07:31:57.543Z,13.37
2019-06-20T07:33:03.091Z,13.40
2019-06-20T07:34:08.192Z,13.20
2019-06-20T07:35:15.321Z,12.90
2019-06-20T07:36:20.393Z,13.77
2019-06-20T07:37:25.882Z,13.80
2019-06-20T07:38:30.978Z,13.60
2019-06-20T07:39:36.552Z,14.07
2019-06-20T07:40:41.546Z,13.87
2019-06-20T07:41:47.132Z,13.33
2019-06-20T07:42:52.051Z,14.13
2019-06-20T07:43:57.671Z,13.37
2019-06-20T07:45:02.834Z,12.83
2019-06-20T07:46:08.542Z,14.07
2019-06-20T07:47:17.440Z,13.50
2019-06-20T07:48:20.613Z,13.13
2019-06-20T07:49:25.552Z,12.60
2019-06-20T07:50:31.052Z,13.70
2019-06-20T07:51:35.953Z,13.70
2019-06-20T07:52:41.561Z,13.90
2019-06-20T07:53:46.471Z,13.57
2019-06-20T07:54:52.050Z,12.98
2019-06-20T07:55:57.011Z,13.73
2019-06-20T07:57:02.725Z,13.53
2019-06-20T07:58:07.772Z,14.17
2019-06-20T07:59:13.471Z,13.73
2019-06-20T08:00:18.891Z,13.17
2019-06-20T08:01:24.511Z,14.07
2019-06-20T08:02:29.518Z,13.40
2019-06-20T08:03:35.304Z,13.27
2019-06-20T08:04:40.327Z,12.60
2019-06-20T08:05:45.835Z,12.53
2019-06-20T08:06:50.888Z,13.53
2019-06-20T08:07:56.393Z,14.40
2019-06-20T08:09:01.531Z,14.23
2019-06-20T08:10:09.255Z,16.23
2019-06-20T08:11:14.162Z,14.60
2019-06-20T08:12:20.061Z,15.53
2019-06-20T08:13:24.991Z,13.27
2019-06-20T08:14:30.552Z,14.57
2019-06-20T08:15:35.631Z,15.30
2019-06-20T08:16:41.158Z,14.13
2019-06-20T08:17:46.071Z,14.23
2019-06-20T08:18:51.581Z,14.73
2019-06-20T08:19:56.623Z,14.90
2019-06-20T08:21:04.075Z,15.33
2019-06-20T08:22:08.811Z,14.93
2019-06-20T08:23:14.381Z,14.77
2019-06-20T08:24:19.410Z,14.53
2019-06-20T08:25:25.510Z,15.30
2019-06-20T08:26:30.521Z,15.53
2019-06-20T08:28:04.344Z,15.75
2019-06-20T08:29:20.425Z,14.90
2019-06-20T08:30:16.912Z,14.73
2019-06-20T08:31:21.823Z,15.03
2019-06-20T08:32:27.384Z,16.00
2019-06-20T08:33:32.357Z,16.37
2019-06-20T08:34:37.872Z,14.90
2019-06-20T08:35:42.867Z,15.97
2019-06-20T08:36:48.371Z,15.07
2019-06-20T08:37:54.035Z,15.53
2019-06-20T08:39:00.235Z,14.80
2019-06-20T08:40:06.555Z,15.37
2019-06-20T08:41:12.421Z,15.15
2019-06-20T08:42:17.354Z,15.45
2019-06-20T08:43:23.032Z,16.15
2019-06-20T08:44:28.001Z,14.77
2019-06-20T08:45:35.040Z,14.73
2019-06-20T08:46:40.945Z,15.70
2019-06-20T08:47:46.675Z,14.90
2019-06-20T08:48:51.743Z,17.05
2019-06-20T08:49:58.147Z,16.33
2019-06-20T08:51:04.518Z,16.50
2019-06-20T08:52:10.204Z,15.95
2019-06-20T08:53:15.311Z,15.57
2019-06-20T08:54:20.858Z,16.23
2019-06-20T08:55:26.036Z,15.08
2019-06-20T08:56:31.597Z,16.50
2019-06-20T08:57:37.561Z,15.58
2019-06-20T08:58:43.064Z,16.25
2019-06-20T08:59:48.043Z,16.02
2019-06-20T09:00:55.474Z,16.32
2019-06-20T09:03:08.712Z,15.85
2019-06-20T09:04:13.726Z,15.40
2019-06-20T09:05:19.767Z,15.58
2019-06-20T09:06:24.673Z,15.70
2019-06-20T09:07:30.258Z,15.65
2019-06-20T09:08:35.291Z,14.90
2019-06-20T09:09:40.911Z,15.58
2019-06-20T09:10:45.851Z,16.17
2019-06-20T09:11:51.434Z,16.25
2019-06-20T09:12:57.056Z,15.63
2019-06-20T09:14:04.025Z,16.32
2019-06-20T09:15:09.716Z,16.05
2019-06-20T09:16:24.320Z,15.55
2019-06-20T09:17:23.845Z,15.68
2019-06-20T09:18:29.134Z,15.55
2019-06-20T09:19:34.124Z,15.75
2019-06-20T09:20:40.303Z,15.50
2019-06-20T09:21:45.258Z,15.00
2019-06-20T09:22:50.930Z,15.95
2019-06-20T09:23:55.801Z,15.48
2019-06-20T09:25:01.282Z,14.87
2019-06-20T09:26:06.733Z,16.30
2019-06-20T09:27:12.378Z,16.07
2019-06-20T09:28:17.311Z,15.23
2019-06-20T09:29:22.831Z,14.47
2019-06-20T09:30:28.042Z,15.10
2019-06-20T09:31:33.831Z,15.35
2019-06-20T09:32:38.950Z,14.75
2019-06-20T09:33:45.649Z,14.95
2019-06-20T09:34:51.827Z,14.45
2019-06-20T09:35:57.841Z,13.05
2019-06-20T09:37:04.010Z,13.03
2019-06-20T09:38:09.928Z,12.82
2019-06-20T09:39:15.071Z,13.60
2019-06-20T09:40:22.493Z,13.72
2019-06-20T09:41:27.401Z,12.88
2019-06-20T09:42:32.982Z,12.33
2019-06-20T09:43:37.852Z,12.58
2019-06-20T09:44:43.373Z,12.95
2019-06-20T09:45:49.555Z,12.60
2019-06-20T09:46:56.353Z,12.90
2019-06-20T09:48:02.728Z,12.95
2019-06-20T09:49:08.583Z,12.65
2019-06-20T09:50:16.512Z,13.15
2019-06-20T09:51:22.144Z,12.37
2019-06-20T09:52:27.051Z,12.93
2019-06-20T09:53:32.671Z,13.32
2019-06-20T09:54:37.731Z,12.82
2019-06-20T09:55:43.371Z,13.10
2019-06-20T09:56:50.283Z,13.10
2019-06-20T09:57:55.946Z,12.85
2019-06-20T09:59:01.066Z,12.10
2019-06-20T10:00:10.424Z,12.13
2019-06-20T10:01:14.142Z,12.63
2019-06-20T10:02:19.660Z,11.60
2019-06-20T10:03:24.709Z,12.15
2019-06-20T10:04:30.267Z,11.68
2019-06-20T10:05:35.505Z,11.63
2019-06-20T10:06:41.664Z,12.07
2019-06-20T10:07:47.295Z,10.98
2019-06-20T10:08:54.358Z,11.33
2019-06-20T10:09:59.330Z,11.35
2019-06-20T10:11:05.094Z,10.98
2019-06-20T10:12:10.124Z,11.73
2019-06-20T10:13:15.762Z,11.43
2019-06-20T10:14:21.143Z,12.03
2019-06-20T10:15:27.844Z,11.00
2019-06-20T10:16:45.267Z,11.85
2019-06-20T10:17:39.993Z,12.18
2019-06-20T10:18:46.793Z,11.85
2019-06-20T10:19:52.152Z,11.50
2019-06-20T10:20:57.714Z,11.22
2019-06-20T10:22:03.354Z,10.70
2019-06-20T10:23:08.372Z,10.82
2019-06-20T10:24:13.973Z,11.28
2019-06-20T10:25:19.341Z,10.78
2019-06-20T10:26:24.991Z,10.82
2019-06-20T10:27:29.982Z,10.68
2019-06-20T10:28:35.611Z,10.50
2019-06-20T10:29:40.574Z,10.13
2019-06-20T10:30:46.522Z,10.08
2019-06-20T10:31:53.092Z,9.95
2019-06-20T10:32:58.781Z,9.30
2019-06-20T10:34:03.771Z,9.93
2019-06-20T10:35:09.722Z,9.20
2019-06-20T10:36:14.751Z,9.93
2019-06-20T10:37:20.261Z,9.35
2019-06-20T10:38:25.212Z,8.78
2019-06-20T10:39:30.832Z,8.65
2019-06-20T10:40:35.892Z,8.13
2019-06-20T10:41:41.893Z,8.45
2019-06-20T10:42:48.059Z,9.28
2019-06-20T10:43:53.793Z,8.90
2019-06-20T10:44:58.783Z,8.48
2019-06-20T10:46:04.511Z,8.30
2019-06-20T10:47:09.532Z,8.40
2019-06-20T10:48:15.263Z,8.00
2019-06-20T10:49:20.202Z,8.65
2019-06-20T10:50:26.062Z,8.15
2019-06-20T10:51:45.922Z,8.65
2019-06-20T10:52:51.910Z,8.35
2019-06-20T10:53:57.394Z,7.55
2019-06-20T10:55:03.023Z,7.70
2019-06-20T10:56:08.130Z,7.60
2019-06-20T10:57:13.651Z,7.62
2019-06-20T10:58:18.657Z,7.22
2019-06-20T10:59:24.162Z,7.35
2019-06-20T11:00:31.959Z,8.08
2019-06-20T11:01:38.055Z,7.87
2019-06-20T11:02:43.391Z,8.20
2019-06-20T11:03:50.000Z,8.13
2019-06-20T11:04:55.133Z,7.97
2019-06-20T11:06:00.630Z,8.40
2019-06-20T11:07:05.802Z,8.65
2019-06-20T11:08:11.487Z,8.60
2019-06-20T11:09:16.475Z,8.08
2019-06-20T11:10:23.192Z,8.80
2019-06-20T11:11:28.151Z,8.88
2019-06-20T11:12:42.811Z,10.55
2019-06-20T11:13:40.527Z,10.25
2019-06-20T11:14:46.279Z,8.95
2019-06-20T11:15:51.282Z,8.70
2019-06-20T11:16:56.901Z,13.62
2019-06-20T11:18:01.961Z,10.35
2019-06-20T11:19:08.022Z,10.03
2019-06-20T11:20:15.023Z,9.38
2019-06-20T11:21:20.702Z,9.03
2019-06-20T11:22:25.591Z,9.65
2019-06-20T11:23:31.202Z,10.35
2019-06-20T11:24:37.478Z,9.23
2019-06-20T11:25:43.684Z,9.55
2019-06-20T11:26:48.791Z,9.95
2019-06-20T11:27:54.277Z,13.20
2019-06-20T11:28:59.201Z,12.00
2019-06-20T11:30:05.174Z,10.48
2019-06-20T11:31:10.354Z,9.13
2019-06-20T11:32:15.841Z,9.90
2019-06-20T11:33:20.754Z,9.28
2019-06-20T11:34:26.255Z,9.53
2019-06-20T11:35:31.162Z,9.28
2019-06-20T11:36:37.489Z,8.73
2019-06-20T11:37:44.656Z,9.08
2019-06-20T11:38:50.491Z,8.75
2019-06-20T11:39:55.580Z,9.78
2019-06-20T11:41:01.102Z,8.78
2019-06-20T11:42:06.185Z,9.45
2019-06-20T11:43:11.784Z,9.53
2019-06-20T11:44:16.846Z,9.63
2019-06-20T11:45:22.422Z,8.93
2019-06-20T11:46:27.432Z,9.03
2019-06-20T11:47:34.914Z,8.80
2019-06-20T11:48:40.576Z,8.78
2019-06-20T11:49:46.958Z,8.55
2019-06-20T11:50:52.161Z,10.08
2019-06-20T11:51:57.838Z,8.93
2019-06-20T11:53:03.021Z,8.55
2019-06-20T11:54:09.134Z,9.33
2019-06-20T11:55:14.432Z,10.28
2019-06-20T11:56:19.911Z,8.95
2019-06-20T11:57:26.603Z,8.88
2019-06-20T11:58:32.241Z,9.38
2019-06-20T11:59:37.237Z,10.55
2019-06-20T12:00:42.804Z,9.23
2019-06-20T12:01:49.001Z,10.08
2019-06-20T12:02:54.775Z,9.35
2019-06-20T12:03:59.729Z,9.05
2019-06-20T12:05:06.071Z,9.30
2019-06-20T12:06:11.044Z,9.93
2019-06-20T12:07:16.691Z,9.73
2019-06-20T12:08:21.655Z,9.55
2019-06-20T12:09:27.213Z,9.38
2019-06-20T12:10:32.292Z,9.90
2019-06-20T12:11:39.074Z,9.65
2019-06-20T12:12:44.883Z,9.18
2019-06-20T12:13:51.060Z,9.10
2019-06-20T12:14:56.045Z,8.63
2019-06-20T12:16:01.736Z,8.83
2019-06-20T12:17:06.922Z,8.78
2019-06-20T12:18:12.500Z,8.58
2019-06-20T12:19:17.571Z,8.25
2019-06-20T12:20:25.079Z,8.15
2019-06-20T12:21:29.992Z,8.48
2019-06-20T12:22:35.582Z,8.78
2019-06-20T12:23:40.665Z,8.55
2019-06-20T12:24:46.708Z,8.15
2019-06-20T12:25:51.881Z,8.43
2019-06-20T12:26:57.534Z,8.48
2019-06-20T12:28:02.610Z,8.05
2019-06-20T12:29:08.360Z,9.85
2019-06-20T12:30:14.699Z,8.30
2019-06-20T12:31:20.391Z,7.97
2019-06-20T12:32:25.312Z,7.50
2019-06-20T12:33:30.861Z,7.75
2019-06-20T12:34:35.851Z,7.70
2019-06-20T12:35:42.642Z,7.60
2019-06-20T12:36:48.566Z,7.77
2019-06-20T12:37:56.862Z,7.50
2019-06-20T12:39:01.819Z,7.20
2019-06-20T12:40:07.663Z,7.92
2019-06-20T12:41:13.203Z,7.35
2019-06-20T12:42:19.252Z,7.65
2019-06-20T12:43:25.029Z,7.30
2019-06-20T12:44:30.583Z,7.70
2019-06-20T12:45:35.701Z,7.80
2019-06-20T12:46:42.681Z,7.67
2019-06-20T12:47:48.066Z,7.67
2019-06-20T12:48:54.147Z,7.63
2019-06-20T12:49:59.633Z,7.07
2019-06-20T12:51:05.598Z,7.17
2019-06-20T12:52:11.157Z,8.00
2019-06-20T12:53:17.453Z,7.33
2019-06-20T12:54:23.043Z,6.73
2019-06-20T12:55:29.101Z,7.37
2019-06-20T12:56:34.667Z,7.33
2019-06-20T12:57:42.125Z,8.50
2019-06-20T12:58:48.489Z,8.03
2019-06-20T12:59:54.721Z,7.80
2019-06-20T13:01:00.361Z,8.53
2019-06-20T13:02:06.643Z,8.10
2019-06-20T13:03:12.321Z,7.47
2019-06-20T13:04:18.438Z,7.90
2019-06-20T13:05:24.040Z,8.07
2019-06-20T13:06:30.003Z,8.43
2019-06-20T13:07:35.360Z,8.47
2019-06-20T13:08:42.288Z,8.90
2019-06-20T13:09:48.720Z,8.40
2019-06-20T13:10:54.848Z,8.93
2019-06-20T13:12:00.418Z,9.43
2019-06-20T13:13:06.442Z,10.20
2019-06-20T13:14:12.008Z,11.10
2019-06-20T13:15:19.761Z,11.07
2019-06-20T13:16:25.282Z,10.87
2019-06-20T13:17:31.443Z,9.43
2019-06-20T13:18:37.483Z,9.77
2019-06-20T13:19:44.384Z,10.17
2019-06-20T13:20:49.889Z,10.27
2019-06-20T13:21:56.100Z,10.20
2019-06-20T13:23:01.650Z,10.30
2019-06-20T13:24:07.920Z,10.87
2019-06-20T13:25:13.800Z,10.63
2019-06-20T13:26:19.685Z,10.83
2019-06-20T13:27:25.128Z,10.67
2019-06-20T13:28:31.081Z,10.57
2019-06-20T13:29:38.993Z,9.43
2019-06-20T13:30:48.614Z,10.07
2019-06-20T13:32:02.124Z,10.47
2019-06-20T13:32:58.916Z,10.40
2019-06-20T13:34:04.361Z,11.10
2019-06-20T13:35:11.360Z,11.03
2019-06-20T13:36:16.907Z,11.07
2019-06-20T13:37:23.042Z,10.43
2019-06-20T13:38:28.561Z,11.43
2019-06-20T13:39:34.601Z,12.63
2019-06-20T13:40:41.365Z,12.63
2019-06-20T13:41:48.045Z,13.00
2019-06-20T13:42:54.831Z,13.33
2019-06-20T13:44:01.042Z,13.57
2019-06-20T13:45:07.929Z,13.50
2019-06-20T13:46:14.121Z,12.93
2019-06-20T13:47:19.735Z,13.57
2019-06-20T13:48:25.761Z,11.90
2019-06-20T13:49:31.205Z,11.53
2019-06-20T13:50:38.661Z,12.03
2019-06-20T13:51:45.887Z,12.23
2019-06-20T13:52:52.164Z,11.40
2019-06-20T13:53:57.769Z,11.40
2019-06-20T13:55:03.762Z,11.60
2019-06-20T13:56:09.203Z,11.63
2019-06-20T13:57:15.331Z,10.93
2019-06-20T13:58:20.880Z,11.50
2019-06-20T13:59:27.000Z,11.03
2019-06-20T14:00:32.882Z,12.33
2019-06-20T14:01:40.193Z,12.00
2019-06-20T14:02:47.032Z,13.13
2019-06-20T14:03:53.801Z,11.53
2019-06-20T14:04:59.282Z,11.90
2019-06-20T14:06:05.440Z,11.30
2019-06-20T14:07:10.921Z,11.97
2019-06-20T14:08:16.841Z,11.87
2019-06-20T14:09:22.400Z,11.70
2019-06-20T14:10:28.613Z,11.80
2019-06-20T14:11:34.124Z,12.13
2019-06-20T14:12:41.538Z,11.57